sensor_id;sensor_type;location;lat;lon;timestamp;temperature;humidity
13713;DHT22;6928;50.546;7.120;2023-10-13T00:02:01;16.60;95.70
13713;DHT22;6928;50.546;7.120;2023-10-13T00:04:30;16.63;95.59
13713;DHT22;6928;50.546;7.120;2023-10-13T00:06:58;16.53;95.81
13713;DHT22;6928;50.546;7.120;2023-10-13T00:09:27;16.63;95.48
13713;DHT22;6928;50.546;7.120;2023-10-13T00:11:59;16.61;95.56
13713;DHT22;6928;50.546;7.120;2023-10-13T00:14:26;16.53;95.98
13713;DHT22;6928;50.546;7.120;2023-10-13T00:16:59;16.67;95.74
13713;DHT22;6928;50.546;7.120;2023-10-13T00:19:30;16.64;95.73
13713;DHT22;6928;50.546;7.120;2023-10-13T00:22:04;16.57;95.79
13713;DHT22;6928;50.546;7.120;2023-10-13T00:24:36;16.70;95.58
13713;DHT22;6928;50.546;7.120;2023-10-13T00:27:09;16.63;95.66
13713;DHT22;6928;50.546;7.120;2023-10-13T00:29:53;16.68;95.48
13713;DHT22;6928;50.546;7.120;2023-10-13T00:32:40;16.74;95.25
13713;DHT22;6928;50.546;7.120;2023-10-13T00:35:09;16.78;95.20
13713;DHT22;6928;50.546;7.120;2023-10-13T00:37:36;16.80;95.06
13713;DHT22;6928;50.546;7.120;2023-10-13T00:40:10;16.75;94.97
13713;DHT22;6928;50.546;7.120;2023-10-13T00:42:53;16.71;95.14
13713;DHT22;6928;50.546;7.120;2023-10-13T00:45:20;16.78;95.00
13713;DHT22;6928;50.546;7.120;2023-10-13T00:47:45;16.71;95.04
13713;DHT22;6928;50.546;7.120;2023-10-13T00:50:15;16.77;94.88
13713;DHT22;6928;50.546;7.120;2023-10-13T00:52:44;16.77;95.05
13713;DHT22;6928;50.546;7.120;2023-10-13T00:55:18;16.85;94.79
13713;DHT22;6928;50.546;7.120;2023-10-13T00:57:44;16.85;94.73
13713;DHT22;6928;50.546;7.120;2023-10-13T01:00:14;16.87;94.67
13713;DHT22;6928;50.546;7.120;2023-10-13T01:02:44;16.83;94.61
13713;DHT22;6928;50.546;7.120;2023-10-13T01:05:20;16.84;94.59
13713;DHT22;6928;50.546;7.120;2023-10-13T01:07:47;16.83;94.67
13713;DHT22;6928;50.546;7.120;2023-10-13T01:10:18;16.74;94.96
13713;DHT22;6928;50.546;7.120;2023-10-13T01:12:45;16.85;94.74
13713;DHT22;6928;50.546;7.120;2023-10-13T01:15:11;16.83;94.73
13713;DHT22;6928;50.546;7.120;2023-10-13T01:17:43;16.80;94.89
13713;DHT22;6928;50.546;7.120;2023-10-13T01:20:11;16.85;94.61
13713;DHT22;6928;50.546;7.120;2023-10-13T01:22:45;16.77;94.74
13713;DHT22;6928;50.546;7.120;2023-10-13T01:25:16;16.85;94.63
13713;DHT22;6928;50.546;7.120;2023-10-13T01:27:44;16.77;94.83
13713;DHT22;6928;50.546;7.120;2023-10-13T01:30:14;16.81;94.70
13713;DHT22;6928;50.546;7.120;2023-10-13T01:32:48;16.83;94.70
13713;DHT22;6928;50.546;7.120;2023-10-13T01:35:16;16.71;95.03
13713;DHT22;6928;50.546;7.120;2023-10-13T01:37:44;16.80;94.98
13713;DHT22;6928;50.546;7.120;2023-10-13T01:40:10;16.68;95.04
13713;DHT22;6928;50.546;7.120;2023-10-13T01:42:40;16.78;95.05
13713;DHT22;6928;50.546;7.120;2023-10-13T01:45:06;16.71;95.11
13713;DHT22;6928;50.546;7.120;2023-10-13T01:47:33;16.74;94.99
13713;DHT22;6928;50.546;7.120;2023-10-13T01:49:59;16.74;94.91
13713;DHT22;6928;50.546;7.120;2023-10-13T01:52:32;16.78;94.96
13713;DHT22;6928;50.546;7.120;2023-10-13T01:54:57;16.78;95.07
13713;DHT22;6928;50.546;7.120;2023-10-13T01:57:26;16.81;94.94
13713;DHT22;6928;50.546;7.120;2023-10-13T01:59:54;16.81;94.76
13713;DHT22;6928;50.546;7.120;2023-10-13T02:02:21;16.84;94.81
13713;DHT22;6928;50.546;7.120;2023-10-13T02:04:54;16.84;94.65
13713;DHT22;6928;50.546;7.120;2023-10-13T02:07:23;16.83;94.59
13713;DHT22;6928;50.546;7.120;2023-10-13T02:09:55;16.70;95.33
13713;DHT22;6928;50.546;7.120;2023-10-13T02:12:21;16.70;95.21
13713;DHT22;6928;50.546;7.120;2023-10-13T02:14:54;16.81;94.97
13713;DHT22;6928;50.546;7.120;2023-10-13T02:17:21;16.77;94.88
13713;DHT22;6928;50.546;7.120;2023-10-13T02:19:46;16.77;94.88
13713;DHT22;6928;50.546;7.120;2023-10-13T02:22:14;16.81;95.04
13713;DHT22;6928;50.546;7.120;2023-10-13T02:24:50;16.88;94.70
13713;DHT22;6928;50.546;7.120;2023-10-13T02:27:18;16.91;94.60
13713;DHT22;6928;50.546;7.120;2023-10-13T02:29:49;16.81;94.98
13713;DHT22;6928;50.546;7.120;2023-10-13T02:32:17;16.75;95.07
13713;DHT22;6928;50.546;7.120;2023-10-13T02:34:44;16.85;94.88
13713;DHT22;6928;50.546;7.120;2023-10-13T02:37:11;16.81;95.07
13713;DHT22;6928;50.546;7.120;2023-10-13T02:39:37;16.81;95.15
13713;DHT22;6928;50.546;7.120;2023-10-13T02:42:06;16.91;94.84
13713;DHT22;6928;50.546;7.120;2023-10-13T02:44:32;16.74;95.46
13713;DHT22;6928;50.546;7.120;2023-10-13T02:47:01;16.74;95.45
13713;DHT22;6928;50.546;7.120;2023-10-13T02:49:29;16.80;95.25
13713;DHT22;6928;50.546;7.120;2023-10-13T02:51:59;16.80;95.18
13713;DHT22;6928;50.546;7.120;2023-10-13T02:54:30;16.83;95.18
13713;DHT22;6928;50.546;7.120;2023-10-13T02:57:04;16.84;95.42
13713;DHT22;6928;50.546;7.120;2023-10-13T02:59:31;16.75;95.88
13713;DHT22;6928;50.546;7.120;2023-10-13T03:02:05;16.85;95.41
13713;DHT22;6928;50.546;7.120;2023-10-13T03:04:44;16.84;95.73
13713;DHT22;6928;50.546;7.120;2023-10-13T03:07:10;16.84;95.50
13713;DHT22;6928;50.546;7.120;2023-10-13T03:09:41;16.90;95.60
13713;DHT22;6928;50.546;7.120;2023-10-13T03:12:15;16.87;95.46
13713;DHT22;6928;50.546;7.120;2023-10-13T03:14:41;16.88;95.39
13713;DHT22;6928;50.546;7.120;2023-10-13T03:17:13;17.00;95.34
13713;DHT22;6928;50.546;7.120;2023-10-13T03:19:43;16.88;95.52
13713;DHT22;6928;50.546;7.120;2023-10-13T03:22:15;17.00;95.53
13713;DHT22;6928;50.546;7.120;2023-10-13T03:24:42;17.09;94.96
13713;DHT22;6928;50.546;7.120;2023-10-13T03:27:12;17.08;95.38
13713;DHT22;6928;50.546;7.120;2023-10-13T03:29:42;17.11;94.77
13713;DHT22;6928;50.546;7.120;2023-10-13T03:32:09;17.15;94.57
13713;DHT22;6928;50.546;7.120;2023-10-13T03:34:38;17.11;94.71
13713;DHT22;6928;50.546;7.120;2023-10-13T03:37:16;17.12;94.85
13713;DHT22;6928;50.546;7.120;2023-10-13T03:39:45;17.14;94.62
13713;DHT22;6928;50.546;7.120;2023-10-13T03:42:12;17.09;95.03
13713;DHT22;6928;50.546;7.120;2023-10-13T03:44:44;17.18;94.77
13713;DHT22;6928;50.546;7.120;2023-10-13T03:47:11;17.23;94.68
13713;DHT22;6928;50.546;7.120;2023-10-13T03:49:51;17.25;94.65
13713;DHT22;6928;50.546;7.120;2023-10-13T03:52:34;17.28;94.56
13713;DHT22;6928;50.546;7.120;2023-10-13T03:55:01;17.25;94.62
13713;DHT22;6928;50.546;7.120;2023-10-13T03:57:30;17.29;94.54
13713;DHT22;6928;50.546;7.120;2023-10-13T03:59:59;17.25;94.67
13713;DHT22;6928;50.546;7.120;2023-10-13T04:02:33;17.32;94.63
13713;DHT22;6928;50.546;7.120;2023-10-13T04:05:01;17.28;94.69
13713;DHT22;6928;50.546;7.120;2023-10-13T04:07:35;17.25;94.77
13713;DHT22;6928;50.546;7.120;2023-10-13T04:10:27;17.18;94.81
13713;DHT22;6928;50.546;7.120;2023-10-13T04:13:11;17.15;95.03
13713;DHT22;6928;50.546;7.120;2023-10-13T04:15:55;17.18;95.10
13713;DHT22;6928;50.546;7.120;2023-10-13T04:18:40;17.09;95.14
13713;DHT22;6928;50.546;7.120;2023-10-13T04:21:29;17.16;95.29
13713;DHT22;6928;50.546;7.120;2023-10-13T04:24:07;17.23;95.15
13713;DHT22;6928;50.546;7.120;2023-10-13T04:27:03;17.09;95.39
13713;DHT22;6928;50.546;7.120;2023-10-13T04:29:55;17.28;94.96
13713;DHT22;6928;50.546;7.120;2023-10-13T04:32:36;17.29;94.76
13713;DHT22;6928;50.546;7.120;2023-10-13T04:35:05;17.42;94.39
13713;DHT22;6928;50.546;7.120;2023-10-13T04:37:36;17.54;93.97
13713;DHT22;6928;50.546;7.120;2023-10-13T04:40:18;17.53;93.97
13713;DHT22;6928;50.546;7.120;2023-10-13T04:42:50;17.57;93.75
13713;DHT22;6928;50.546;7.120;2023-10-13T04:45:16;17.59;93.61
13713;DHT22;6928;50.546;7.120;2023-10-13T04:48:04;17.65;93.57
13713;DHT22;6928;50.546;7.120;2023-10-13T04:50:44;17.65;93.55
13713;DHT22;6928;50.546;7.120;2023-10-13T04:53:12;17.62;93.65
13713;DHT22;6928;50.546;7.120;2023-10-13T04:55:55;17.63;93.41
13713;DHT22;6928;50.546;7.120;2023-10-13T04:58:54;17.66;93.42
13713;DHT22;6928;50.546;7.120;2023-10-13T05:01:38;17.62;93.56
13713;DHT22;6928;50.546;7.120;2023-10-13T05:04:22;17.62;93.85
13713;DHT22;6928;50.546;7.120;2023-10-13T05:07:03;17.67;93.65
13713;DHT22;6928;50.546;7.120;2023-10-13T05:09:43;17.94;92.08
13713;DHT22;6928;50.546;7.120;2023-10-13T05:12:29;17.76;93.14
13713;DHT22;6928;50.546;7.120;2023-10-13T05:15:13;17.84;92.99
13713;DHT22;6928;50.546;7.120;2023-10-13T05:17:57;17.76;93.05
13713;DHT22;6928;50.546;7.120;2023-10-13T05:20:41;17.69;93.72
13713;DHT22;6928;50.546;7.120;2023-10-13T05:23:26;17.70;93.69
13713;DHT22;6928;50.546;7.120;2023-10-13T05:26:10;17.79;93.25
13713;DHT22;6928;50.546;7.120;2023-10-13T05:28:55;17.84;93.08
13713;DHT22;6928;50.546;7.120;2023-10-13T05:31:39;17.90;92.92
13713;DHT22;6928;50.546;7.120;2023-10-13T05:34:23;18.44;91.20
13713;DHT22;6928;50.546;7.120;2023-10-13T05:37:07;18.58;90.64
13713;DHT22;6928;50.546;7.120;2023-10-13T05:39:51;18.72;89.88
13713;DHT22;6928;50.546;7.120;2023-10-13T05:42:36;18.70;90.37
13713;DHT22;6928;50.546;7.120;2023-10-13T05:45:21;19.00;89.07
13713;DHT22;6928;50.546;7.120;2023-10-13T05:48:06;19.00;89.01
13713;DHT22;6928;50.546;7.120;2023-10-13T05:50:39;18.86;89.54
13713;DHT22;6928;50.546;7.120;2023-10-13T05:53:43;18.76;90.24
13713;DHT22;6928;50.546;7.120;2023-10-13T05:56:27;19.04;88.95
13713;DHT22;6928;50.546;7.120;2023-10-13T05:59:11;19.23;88.28
13713;DHT22;6928;50.546;7.120;2023-10-13T06:01:56;19.18;88.53
13713;DHT22;6928;50.546;7.120;2023-10-13T06:04:40;19.07;89.04
13713;DHT22;6928;50.546;7.120;2023-10-13T06:07:24;19.07;89.40
13713;DHT22;6928;50.546;7.120;2023-10-13T06:10:09;19.17;88.65
13713;DHT22;6928;50.546;7.120;2023-10-13T06:12:53;19.07;88.98
13713;DHT22;6928;50.546;7.120;2023-10-13T06:15:37;19.08;89.28
13713;DHT22;6928;50.546;7.120;2023-10-13T06:18:23;19.10;89.05
13713;DHT22;6928;50.546;7.120;2023-10-13T06:21:07;18.98;89.54
13713;DHT22;6928;50.546;7.120;2023-10-13T06:23:51;19.17;88.52
13713;DHT22;6928;50.546;7.120;2023-10-13T06:26:35;19.20;88.66
13713;DHT22;6928;50.546;7.120;2023-10-13T06:29:19;19.27;88.24
13713;DHT22;6928;50.546;7.120;2023-10-13T06:31:46;19.27;88.14
13713;DHT22;6928;50.546;7.120;2023-10-13T06:34:15;19.26;88.33
13713;DHT22;6928;50.546;7.120;2023-10-13T06:36:45;19.30;87.89
13713;DHT22;6928;50.546;7.120;2023-10-13T06:39:13;19.10;89.20
13713;DHT22;6928;50.546;7.120;2023-10-13T06:41:57;18.87;90.12
13713;DHT22;6928;50.546;7.120;2023-10-13T06:44:23;18.73;90.84
13713;DHT22;6928;50.546;7.120;2023-10-13T06:46:50;18.70;90.79
13713;DHT22;6928;50.546;7.120;2023-10-13T06:49:19;18.66;90.50
13713;DHT22;6928;50.546;7.120;2023-10-13T06:51:45;18.73;90.71
13713;DHT22;6928;50.546;7.120;2023-10-13T06:54:13;18.76;90.04
13713;DHT22;6928;50.546;7.120;2023-10-13T06:56:45;18.86;89.93
13713;DHT22;6928;50.546;7.120;2023-10-13T06:59:12;18.80;90.46
13713;DHT22;6928;50.546;7.120;2023-10-13T07:01:41;18.77;90.50
13713;DHT22;6928;50.546;7.120;2023-10-13T07:04:08;18.73;90.40
13713;DHT22;6928;50.546;7.120;2023-10-13T07:06:44;18.72;90.72
13713;DHT22;6928;50.546;7.120;2023-10-13T07:09:14;18.75;90.39
13713;DHT22;6928;50.546;7.120;2023-10-13T07:12:05;18.69;90.55
13713;DHT22;6928;50.546;7.120;2023-10-13T07:14:33;18.73;90.40
13713;DHT22;6928;50.546;7.120;2023-10-13T07:17:01;18.79;89.73
13713;DHT22;6928;50.546;7.120;2023-10-13T07:19:29;19.26;86.42
13713;DHT22;6928;50.546;7.120;2023-10-13T07:21:58;19.39;86.45
13713;DHT22;6928;50.546;7.120;2023-10-13T07:24:28;19.20;87.56
13713;DHT22;6928;50.546;7.120;2023-10-13T07:26:57;19.34;86.88
13713;DHT22;6928;50.546;7.120;2023-10-13T07:29:29;19.17;87.57
13713;DHT22;6928;50.546;7.120;2023-10-13T07:31:59;19.08;88.16
13713;DHT22;6928;50.546;7.120;2023-10-13T07:34:27;19.07;88.08
13713;DHT22;6928;50.546;7.120;2023-10-13T07:36:58;19.07;88.10
13713;DHT22;6928;50.546;7.120;2023-10-13T07:39:27;19.10;87.72
13713;DHT22;6928;50.546;7.120;2023-10-13T07:41:59;19.11;87.71
13713;DHT22;6928;50.546;7.120;2023-10-13T07:44:31;19.92;79.70
13713;DHT22;6928;50.546;7.120;2023-10-13T07:46:59;20.16;77.43
13713;DHT22;6928;50.546;7.120;2023-10-13T07:49:29;20.16;77.05
13713;DHT22;6928;50.546;7.120;2023-10-13T07:52:04;20.31;75.53
13713;DHT22;6928;50.546;7.120;2023-10-13T07:54:44;20.26;76.06
13713;DHT22;6928;50.546;7.120;2023-10-13T07:57:13;20.26;76.26
13713;DHT22;6928;50.546;7.120;2023-10-13T07:59:40;20.26;75.48
13713;DHT22;6928;50.546;7.120;2023-10-13T08:02:13;20.14;76.67
13713;DHT22;6928;50.546;7.120;2023-10-13T08:04:58;20.31;74.77
13713;DHT22;6928;50.546;7.120;2023-10-13T08:07:28;20.20;76.44
13713;DHT22;6928;50.546;7.120;2023-10-13T08:09:56;20.51;74.11
13713;DHT22;6928;50.546;7.120;2023-10-13T08:12:24;20.45;73.45
13713;DHT22;6928;50.546;7.120;2023-10-13T08:14:51;20.61;73.86
13713;DHT22;6928;50.546;7.120;2023-10-13T08:17:37;20.59;73.71
13713;DHT22;6928;50.546;7.120;2023-10-13T08:20:10;20.43;75.09
13713;DHT22;6928;50.546;7.120;2023-10-13T08:22:39;20.85;72.45
13713;DHT22;6928;50.546;7.120;2023-10-13T08:25:13;20.48;75.29
13713;DHT22;6928;50.546;7.120;2023-10-13T08:27:50;20.64;74.06
13713;DHT22;6928;50.546;7.120;2023-10-13T08:30:31;20.78;73.40
13713;DHT22;6928;50.546;7.120;2023-10-13T08:33:08;20.94;72.97
13713;DHT22;6928;50.546;7.120;2023-10-13T08:35:43;21.15;71.66
13713;DHT22;6928;50.546;7.120;2023-10-13T08:38:21;20.96;73.05
13713;DHT22;6928;50.546;7.120;2023-10-13T08:40:58;20.78;74.73
13713;DHT22;6928;50.546;7.120;2023-10-13T08:43:43;20.76;74.47
13713;DHT22;6928;50.546;7.120;2023-10-13T08:46:16;20.98;73.40
13713;DHT22;6928;50.546;7.120;2023-10-13T08:48:55;20.95;73.51
13713;DHT22;6928;50.546;7.120;2023-10-13T08:51:35;20.94;73.58
13713;DHT22;6928;50.546;7.120;2023-10-13T08:54:17;20.88;74.14
13713;DHT22;6928;50.546;7.120;2023-10-13T08:56:59;20.96;73.12
13713;DHT22;6928;50.546;7.120;2023-10-13T08:59:45;20.98;73.63
13713;DHT22;6928;50.546;7.120;2023-10-13T09:02:20;20.96;73.57
13713;DHT22;6928;50.546;7.120;2023-10-13T09:04:47;21.02;73.16
13713;DHT22;6928;50.546;7.120;2023-10-13T09:07:24;20.98;74.30
13713;DHT22;6928;50.546;7.120;2023-10-13T09:09:52;21.13;74.14
13713;DHT22;6928;50.546;7.120;2023-10-13T09:12:58;21.29;72.90
13713;DHT22;6928;50.546;7.120;2023-10-13T09:15:30;21.49;72.31
13713;DHT22;6928;50.546;7.120;2023-10-13T09:18:24;21.32;74.49
13713;DHT22;6928;50.546;7.120;2023-10-13T09:21:08;21.36;74.12
13713;DHT22;6928;50.546;7.120;2023-10-13T09:23:55;21.49;73.27
13713;DHT22;6928;50.546;7.120;2023-10-13T09:26:43;21.60;73.08
13713;DHT22;6928;50.546;7.120;2023-10-13T09:29:16;21.58;73.37
13713;DHT22;6928;50.546;7.120;2023-10-13T09:31:44;21.60;72.95
13713;DHT22;6928;50.546;7.120;2023-10-13T09:34:19;21.84;71.18
13713;DHT22;6928;50.546;7.120;2023-10-13T09:36:46;21.84;70.47
13713;DHT22;6928;50.546;7.120;2023-10-13T09:39:23;21.74;71.29
13713;DHT22;6928;50.546;7.120;2023-10-13T09:42:01;22.05;68.95
13713;DHT22;6928;50.546;7.120;2023-10-13T09:44:29;22.04;68.62
13713;DHT22;6928;50.546;7.120;2023-10-13T09:47:00;22.11;68.17
13713;DHT22;6928;50.546;7.120;2023-10-13T09:49:38;22.21;69.15
13713;DHT22;6928;50.546;7.120;2023-10-13T09:52:15;22.18;69.69
13713;DHT22;6928;50.546;7.120;2023-10-13T09:54:55;22.21;68.85
13713;DHT22;6928;50.546;7.120;2023-10-13T09:57:29;22.09;69.96
13713;DHT22;6928;50.546;7.120;2023-10-13T10:00:07;22.11;68.95
13713;DHT22;6928;50.546;7.120;2023-10-13T10:02:52;22.11;69.02
13713;DHT22;6928;50.546;7.120;2023-10-13T10:05:24;22.11;70.00
13713;DHT22;6928;50.546;7.120;2023-10-13T10:07:55;22.13;69.68
13713;DHT22;6928;50.546;7.120;2023-10-13T10:10:22;22.50;67.25
13713;DHT22;6928;50.546;7.120;2023-10-13T10:12:59;22.79;67.24
13713;DHT22;6928;50.546;7.120;2023-10-13T10:15:28;23.11;65.73
13713;DHT22;6928;50.546;7.120;2023-10-13T10:17:59;22.98;65.30
13713;DHT22;6928;50.546;7.120;2023-10-13T10:20:29;22.91;66.05
13713;DHT22;6928;50.546;7.120;2023-10-13T10:23:08;23.05;65.88
13713;DHT22;6928;50.546;7.120;2023-10-13T10:25:43;23.27;64.70
13713;DHT22;6928;50.546;7.120;2023-10-13T10:28:13;23.48;64.12
13713;DHT22;6928;50.546;7.120;2023-10-13T10:30:41;23.73;63.43
13713;DHT22;6928;50.546;7.120;2023-10-13T10:33:10;23.78;63.78
13713;DHT22;6928;50.546;7.120;2023-10-13T10:35:41;23.94;63.50
13713;DHT22;6928;50.546;7.120;2023-10-13T10:38:13;24.40;60.88
13713;DHT22;6928;50.546;7.120;2023-10-13T10:40:50;24.45;61.50
13713;DHT22;6928;50.546;7.120;2023-10-13T10:43:19;24.43;61.12
13713;DHT22;6928;50.546;7.120;2023-10-13T10:45:47;24.59;60.64
13713;DHT22;6928;50.546;7.120;2023-10-13T10:48:16;24.85;59.85
13713;DHT22;6928;50.546;7.120;2023-10-13T10:50:51;24.79;60.15
13713;DHT22;6928;50.546;7.120;2023-10-13T10:53:20;25.02;59.70
13713;DHT22;6928;50.546;7.120;2023-10-13T10:55:48;25.02;59.34
13713;DHT22;6928;50.546;7.120;2023-10-13T10:58:15;25.00;58.70
13713;DHT22;6928;50.546;7.120;2023-10-13T11:01:05;24.95;59.26
13713;DHT22;6928;50.546;7.120;2023-10-13T11:03:36;25.23;58.37
13713;DHT22;6928;50.546;7.120;2023-10-13T11:06:11;25.22;57.89
13713;DHT22;6928;50.546;7.120;2023-10-13T11:08:45;25.48;57.74
13713;DHT22;6928;50.546;7.120;2023-10-13T11:11:27;25.50;56.75
13713;DHT22;6928;50.546;7.120;2023-10-13T11:13:56;25.40;57.66
13713;DHT22;6928;50.546;7.120;2023-10-13T11:16:46;25.60;56.88
13713;DHT22;6928;50.546;7.120;2023-10-13T11:19:16;25.56;56.93
13713;DHT22;6928;50.546;7.120;2023-10-13T11:21:45;25.67;56.06
13713;DHT22;6928;50.546;7.120;2023-10-13T11:24:12;25.82;54.54
13713;DHT22;6928;50.546;7.120;2023-10-13T11:26:39;26.16;55.36
13713;DHT22;6928;50.546;7.120;2023-10-13T11:29:14;26.15;54.96
13713;DHT22;6928;50.546;7.120;2023-10-13T11:31:45;26.16;54.31
13713;DHT22;6928;50.546;7.120;2023-10-13T11:34:19;25.56;54.98
13713;DHT22;6928;50.546;7.120;2023-10-13T11:36:45;25.31;55.60
13713;DHT22;6928;50.546;7.120;2023-10-13T11:39:12;25.34;56.15
13713;DHT22;6928;50.546;7.120;2023-10-13T11:41:45;25.10;55.25
13713;DHT22;6928;50.546;7.120;2023-10-13T11:44:20;25.07;55.72
13713;DHT22;6928;50.546;7.120;2023-10-13T11:46:58;25.07;56.50
13713;DHT22;6928;50.546;7.120;2023-10-13T11:49:53;25.12;56.04
13713;DHT22;6928;50.546;7.120;2023-10-13T11:52:23;25.27;55.22
13713;DHT22;6928;50.546;7.120;2023-10-13T11:54:51;25.60;55.19
13713;DHT22;6928;50.546;7.120;2023-10-13T11:57:18;25.73;53.55
13713;DHT22;6928;50.546;7.120;2023-10-13T11:59:45;25.89;53.64
13713;DHT22;6928;50.546;7.120;2023-10-13T12:02:20;25.84;53.05
13713;DHT22;6928;50.546;7.120;2023-10-13T12:05:05;26.18;53.46
13713;DHT22;6928;50.546;7.120;2023-10-13T12:07:38;26.19;53.07
13713;DHT22;6928;50.546;7.120;2023-10-13T12:10:13;26.12;52.43
13713;DHT22;6928;50.546;7.120;2023-10-13T12:12:59;26.26;53.25
13713;DHT22;6928;50.546;7.120;2023-10-13T12:15:31;26.40;53.31
13713;DHT22;6928;50.546;7.120;2023-10-13T12:18:14;26.22;52.25
13713;DHT22;6928;50.546;7.120;2023-10-13T12:20:41;25.80;53.08
13713;DHT22;6928;50.546;7.120;2023-10-13T12:23:11;26.10;52.60
13713;DHT22;6928;50.546;7.120;2023-10-13T12:25:43;26.21;52.25
13713;DHT22;6928;50.546;7.120;2023-10-13T12:28:25;26.10;52.42
13713;DHT22;6928;50.546;7.120;2023-10-13T12:30:54;25.91;52.10
13713;DHT22;6928;50.546;7.120;2023-10-13T12:33:25;25.95;52.23
13713;DHT22;6928;50.546;7.120;2023-10-13T12:35:58;25.96;52.40
13713;DHT22;6928;50.546;7.120;2023-10-13T12:38:32;26.01;52.78
13713;DHT22;6928;50.546;7.120;2023-10-13T12:41:37;25.91;52.92
13713;DHT22;6928;50.546;7.120;2023-10-13T12:44:22;25.88;52.91
13713;DHT22;6928;50.546;7.120;2023-10-13T12:47:05;25.82;52.90
13713;DHT22;6928;50.546;7.120;2023-10-13T12:49:51;25.86;53.30
13713;DHT22;6928;50.546;7.120;2023-10-13T12:52:40;25.98;53.12
13713;DHT22;6928;50.546;7.120;2023-10-13T12:55:10;25.65;53.64
13713;DHT22;6928;50.546;7.120;2023-10-13T12:57:38;25.70;53.88
13713;DHT22;6928;50.546;7.120;2023-10-13T13:00:13;25.37;54.48
13713;DHT22;6928;50.546;7.120;2023-10-13T13:02:46;25.10;54.98
13713;DHT22;6928;50.546;7.120;2023-10-13T13:05:17;24.98;55.45
13713;DHT22;6928;50.546;7.120;2023-10-13T13:07:48;24.82;55.40
13713;DHT22;6928;50.546;7.120;2023-10-13T13:10:18;24.69;55.93
13713;DHT22;6928;50.546;7.120;2023-10-13T13:12:45;24.62;56.11
13713;DHT22;6928;50.546;7.120;2023-10-13T13:15:12;24.57;55.74
13713;DHT22;6928;50.546;7.120;2023-10-13T13:17:40;24.52;56.13
13713;DHT22;6928;50.546;7.120;2023-10-13T13:20:07;24.55;56.72
13713;DHT22;6928;50.546;7.120;2023-10-13T13:22:52;24.52;56.79
13713;DHT22;6928;50.546;7.120;2023-10-13T13:25:20;24.51;57.02
13713;DHT22;6928;50.546;7.120;2023-10-13T13:27:51;24.27;57.44
13713;DHT22;6928;50.546;7.120;2023-10-13T13:30:17;24.38;57.71
13713;DHT22;6928;50.546;7.120;2023-10-13T13:32:46;24.30;57.72
13713;DHT22;6928;50.546;7.120;2023-10-13T13:35:13;24.34;58.08
13713;DHT22;6928;50.546;7.120;2023-10-13T13:37:40;24.20;57.82
13713;DHT22;6928;50.546;7.120;2023-10-13T13:40:11;24.21;57.90
13713;DHT22;6928;50.546;7.120;2023-10-13T13:42:42;24.21;57.61
13713;DHT22;6928;50.546;7.120;2023-10-13T13:45:12;24.34;57.91
13713;DHT22;6928;50.546;7.120;2023-10-13T13:47:47;24.41;57.82
13713;DHT22;6928;50.546;7.120;2023-10-13T13:50:20;24.38;57.71
13713;DHT22;6928;50.546;7.120;2023-10-13T13:52:50;24.36;58.33
13713;DHT22;6928;50.546;7.120;2023-10-13T13:55:19;24.41;58.45
13713;DHT22;6928;50.546;7.120;2023-10-13T13:57:47;24.44;57.93
13713;DHT22;6928;50.546;7.120;2023-10-13T14:00:16;24.73;56.46
13713;DHT22;6928;50.546;7.120;2023-10-13T14:02:47;24.71;56.36
13713;DHT22;6928;50.546;7.120;2023-10-13T14:05:14;24.79;56.52
13713;DHT22;6928;50.546;7.120;2023-10-13T14:07:41;24.82;56.45
13713;DHT22;6928;50.546;7.120;2023-10-13T14:10:08;24.92;56.42
13713;DHT22;6928;50.546;7.120;2023-10-13T14:12:43;24.98;56.62
13713;DHT22;6928;50.546;7.120;2023-10-13T14:15:09;24.89;55.45
13713;DHT22;6928;50.546;7.120;2023-10-13T14:17:45;24.94;56.06
13713;DHT22;6928;50.546;7.120;2023-10-13T14:20:14;24.85;55.44
13713;DHT22;6928;50.546;7.120;2023-10-13T14:22:44;24.94;55.46
13713;DHT22;6928;50.546;7.120;2023-10-13T14:25:12;24.89;56.48
13713;DHT22;6928;50.546;7.120;2023-10-13T14:27:39;24.71;56.30
13713;DHT22;6928;50.546;7.120;2023-10-13T14:30:08;24.52;56.32
13713;DHT22;6928;50.546;7.120;2023-10-13T14:32:35;24.51;56.65
13713;DHT22;6928;50.546;7.120;2023-10-13T14:35:06;24.36;56.33
13713;DHT22;6928;50.546;7.120;2023-10-13T14:37:40;24.24;56.68
13713;DHT22;6928;50.546;7.120;2023-10-13T14:40:07;24.24;57.04
13713;DHT22;6928;50.546;7.120;2023-10-13T14:42:38;24.18;57.38
13713;DHT22;6928;50.546;7.120;2023-10-13T14:45:08;24.06;57.21
13713;DHT22;6928;50.546;7.120;2023-10-13T14:47:38;24.07;57.72
13713;DHT22;6928;50.546;7.120;2023-10-13T14:50:06;24.04;57.87
13713;DHT22;6928;50.546;7.120;2023-10-13T14:52:34;24.10;57.79
13713;DHT22;6928;50.546;7.120;2023-10-13T14:55:00;24.13;57.51
13713;DHT22;6928;50.546;7.120;2023-10-13T14:57:32;24.14;56.78
13713;DHT22;6928;50.546;7.120;2023-10-13T15:00:03;24.06;57.18
13713;DHT22;6928;50.546;7.120;2023-10-13T15:02:39;24.04;57.94
13713;DHT22;6928;50.546;7.120;2023-10-13T15:05:08;24.03;57.75
13713;DHT22;6928;50.546;7.120;2023-10-13T15:07:42;23.92;57.81
13713;DHT22;6928;50.546;7.120;2023-10-13T15:10:11;24.00;57.87
13713;DHT22;6928;50.546;7.120;2023-10-13T15:12:40;23.90;57.59
13713;DHT22;6928;50.546;7.120;2023-10-13T15:15:08;23.86;57.68
13713;DHT22;6928;50.546;7.120;2023-10-13T15:17:40;23.86;58.44
13713;DHT22;6928;50.546;7.120;2023-10-13T15:20:07;23.90;58.12
13713;DHT22;6928;50.546;7.120;2023-10-13T15:22:35;23.78;57.99
13713;DHT22;6928;50.546;7.120;2023-10-13T15:25:04;23.82;58.76
13713;DHT22;6928;50.546;7.120;2023-10-13T15:27:43;23.79;58.67
13713;DHT22;6928;50.546;7.120;2023-10-13T15:30:15;23.69;58.43
13713;DHT22;6928;50.546;7.120;2023-10-13T15:32:49;23.69;58.50
13713;DHT22;6928;50.546;7.120;2023-10-13T15:35:17;23.73;59.02
13713;DHT22;6928;50.546;7.120;2023-10-13T15:37:44;23.69;58.47
13713;DHT22;6928;50.546;7.120;2023-10-13T15:40:13;23.70;58.73
13713;DHT22;6928;50.546;7.120;2023-10-13T15:42:42;23.70;58.99
13713;DHT22;6928;50.546;7.120;2023-10-13T15:45:10;23.65;59.02
13713;DHT22;6928;50.546;7.120;2023-10-13T15:47:43;23.62;59.48
13713;DHT22;6928;50.546;7.120;2023-10-13T15:50:13;23.73;59.24
13713;DHT22;6928;50.546;7.120;2023-10-13T15:52:43;23.66;59.30
13713;DHT22;6928;50.546;7.120;2023-10-13T15:55:13;23.49;60.27
13713;DHT22;6928;50.546;7.120;2023-10-13T15:57:40;23.56;60.67
13713;DHT22;6928;50.546;7.120;2023-10-13T16:00:09;23.49;59.71
13713;DHT22;6928;50.546;7.120;2023-10-13T16:02:50;23.55;59.53
13713;DHT22;6928;50.546;7.120;2023-10-13T16:05:22;23.52;59.75
13713;DHT22;6928;50.546;7.120;2023-10-13T16:07:51;23.59;59.71
13713;DHT22;6928;50.546;7.120;2023-10-13T16:10:21;23.63;59.62
13713;DHT22;6928;50.546;7.120;2023-10-13T16:12:48;23.56;59.68
13713;DHT22;6928;50.546;7.120;2023-10-13T16:15:17;23.50;61.38
13713;DHT22;6928;50.546;7.120;2023-10-13T16:17:47;23.43;61.29
13713;DHT22;6928;50.546;7.120;2023-10-13T16:20:13;23.37;60.88
13713;DHT22;6928;50.546;7.120;2023-10-13T16:22:45;23.39;60.82
13713;DHT22;6928;50.546;7.120;2023-10-13T16:25:13;23.29;61.81